createdAt,value
2016-11-22T00:00:41.808Z,46.36
2016-11-22T00:01:41.830Z,45.98
2016-11-22T00:02:42.167Z,45.4
2016-11-22T00:03:41.873Z,45.98
2016-11-22T00:04:41.896Z,47.61
2016-11-22T00:05:42.231Z,46.55
2016-11-22T00:06:41.942Z,47.22
2016-11-22T00:07:41.960Z,46.46
2016-11-22T00:08:42.006Z,45.04
2016-11-22T00:09:42.321Z,44.93
2016-11-22T00:10:42.365Z,45.79
2016-11-22T00:11:42.054Z,45.43
2016-11-22T00:12:42.384Z,44.35
2016-11-22T00:13:42.407Z,43.97
2016-11-22T00:14:42.451Z,43.97
2016-11-22T00:15:42.135Z,44.35
2016-11-22T00:16:42.156Z,43.77
2016-11-22T00:17:42.180Z,44.45
2016-11-22T00:18:42.516Z,45.02
2016-11-22T00:19:42.538Z,45.12
2016-11-22T00:20:42.243Z,45.02
2016-11-22T00:21:42.265Z,44.95
2016-11-22T00:22:42.289Z,44.26
2016-11-22T00:23:42.309Z,43.87
2016-11-22T00:24:42.647Z,43.68
2016-11-22T00:25:42.675Z,43.6
2016-11-22T00:26:42.374Z,43.23
2016-11-22T00:27:42.712Z,42.46
2016-11-22T00:28:42.732Z,41.67
2016-11-22T00:29:42.443Z,41.78
2016-11-22T00:30:42.778Z,41.6
2016-11-22T00:31:42.830Z,40.92
2016-11-22T00:32:42.507Z,41.31
2016-11-22T00:33:42.856Z,41.6
2016-11-22T00:34:42.865Z,42.65
2016-11-22T00:35:42.571Z,42.46
2016-11-22T00:36:42.596Z,42.36
2016-11-22T00:37:42.617Z,42.91
2016-11-22T00:38:42.640Z,42.91
2016-11-22T00:39:42.664Z,43.6
2016-11-22T00:40:42.998Z,43.97
2016-11-22T00:41:43.022Z,43.51
2016-11-22T00:42:43.040Z,42.84
2016-11-22T00:43:43.066Z,43.2
2016-11-22T00:44:42.770Z,43.59
2016-11-22T00:45:43.109Z,43.9
2016-11-22T00:46:43.127Z,43.99
2016-11-22T00:47:42.841Z,44.18
2016-11-22T00:48:42.858Z,44.56
2016-11-22T00:49:43.196Z,44.09
2016-11-22T00:50:42.925Z,44.27
2016-11-22T00:51:42.924Z,43.99
2016-11-22T00:52:43.263Z,43.99
2016-11-22T00:53:43.284Z,43.77
2016-11-22T00:54:42.990Z,44.54
2016-11-22T00:55:43.015Z,44.45
2016-11-22T00:56:43.038Z,44.35
2016-11-22T00:57:43.370Z,44.45
2016-11-22T00:58:43.396Z,44.93
2016-11-22T00:59:43.101Z,44.95
2016-11-22T01:00:43.448Z,44.09
2016-11-22T01:01:43.147Z,43.7
2016-11-22T01:02:43.168Z,43.68
2016-11-22T01:03:43.501Z,44.16
2016-11-22T01:04:43.525Z,43.01
2016-11-22T01:05:43.237Z,42.63
2016-11-22T01:06:43.603Z,43.39
2016-11-22T01:07:43.277Z,43.2
2016-11-22T01:08:43.300Z,42.17
2016-11-22T01:09:43.322Z,42.24
2016-11-22T01:10:43.659Z,42.72
2016-11-22T01:11:43.367Z,42.24
2016-11-22T01:12:43.707Z,42.34
2016-11-22T01:13:43.425Z,42.46
2016-11-22T01:14:43.435Z,42.36
2016-11-22T01:15:43.454Z,42.65
2016-11-22T01:16:43.480Z,41.31
2016-11-22T01:17:43.499Z,42.17
2016-11-22T01:18:43.525Z,42.55
2016-11-22T01:19:43.545Z,41.6
2016-11-22T01:20:43.569Z,41.97
2016-11-22T01:21:43.587Z,42.27
2016-11-22T01:22:43.928Z,42.55
2016-11-22T01:23:43.639Z,41.97
2016-11-22T01:24:43.975Z,41.5
2016-11-22T01:25:43.993Z,42.36
2016-11-22T01:26:43.701Z,42.46
2016-11-22T01:27:43.723Z,42.36
2016-11-22T01:28:44.062Z,42.36
2016-11-22T01:29:43.768Z,41.97
2016-11-22T01:30:44.106Z,41.31
2016-11-22T01:31:44.131Z,40.75
2016-11-22T01:32:44.149Z,41.11
2016-11-22T01:33:44.177Z,41.88
2016-11-22T01:34:44.196Z,41.33
2016-11-22T01:35:44.233Z,41.71
2016-11-22T01:36:43.924Z,41.23
2016-11-22T01:37:44.267Z,40.84
2016-11-22T01:38:44.290Z,40.56
2016-11-22T01:39:43.996Z,40.47
2016-11-22T01:40:44.014Z,40.17
2016-11-22T01:41:44.037Z,39.79
2016-11-22T01:42:44.378Z,38.54
2016-11-22T01:43:44.082Z,40.08
2016-11-22T01:44:44.107Z,39.03
2016-11-22T01:45:44.440Z,38.26
2016-11-22T01:46:44.467Z,38.76
2016-11-22T01:47:44.172Z,38.09
2016-11-22T01:48:44.200Z,37.13
2016-11-22T01:49:44.533Z,38.09
2016-11-22T01:50:44.256Z,38.18
2016-11-22T01:51:44.580Z,37.89
2016-11-22T01:52:44.603Z,36.65
2016-11-22T01:53:44.624Z,37.22
2016-11-22T01:54:44.331Z,38.18
2016-11-22T01:55:44.355Z,36.93
2016-11-22T01:56:44.376Z,36.74
2016-11-22T01:57:44.715Z,36.93
2016-11-22T01:58:44.433Z,37.34
2016-11-22T01:59:44.764Z,36.28
2016-11-22T02:00:44.781Z,35.22
2016-11-22T02:01:44.808Z,35.61
2016-11-22T02:02:44.826Z,35.13
2016-11-22T02:03:44.849Z,36.09
2016-11-22T02:04:44.873Z,36.09
2016-11-22T02:05:44.614Z,35.61
2016-11-22T02:06:44.918Z,35.71
2016-11-22T02:07:44.944Z,35.32
2016-11-22T02:08:44.649Z,35.03
2016-11-22T02:09:45.004Z,34.94
2016-11-22T02:10:44.699Z,35.13
2016-11-22T02:11:44.718Z,35.22
2016-11-22T02:12:45.055Z,34.86
2016-11-22T02:13:45.085Z,34.94
2016-11-22T02:14:45.103Z,34.19
2016-11-22T02:15:44.810Z,34.38
2016-11-22T02:16:44.835Z,33.99
2016-11-22T02:17:44.856Z,34.38
2016-11-22T02:18:44.879Z,33.99
2016-11-22T02:19:44.905Z,34.19
2016-11-22T02:20:44.928Z,34.09
2016-11-22T02:21:45.286Z,34.19
2016-11-22T02:22:45.288Z,34.19
2016-11-22T02:23:44.997Z,34.76
2016-11-22T02:24:45.335Z,34.38
2016-11-22T02:25:45.377Z,35.91
2016-11-22T02:26:45.066Z,36.58
2016-11-22T02:27:45.088Z,36.01
2016-11-22T02:28:45.425Z,35.14
2016-11-22T02:29:45.458Z,34.95
2016-11-22T02:30:45.473Z,35.63
2016-11-22T02:31:45.182Z,35.43
2016-11-22T02:32:45.521Z,34.95
2016-11-22T02:33:45.593Z,35.14
2016-11-22T02:34:45.248Z,35.24
2016-11-22T02:35:45.274Z,35.72
2016-11-22T02:36:45.612Z,35.82
2016-11-22T02:37:45.340Z,35.82
2016-11-22T02:38:45.351Z,35.43
2016-11-22T02:39:45.366Z,35.14
2016-11-22T02:40:45.716Z,35.24
2016-11-22T02:41:45.726Z,33.99
2016-11-22T02:42:45.433Z,33.99
2016-11-22T02:43:45.457Z,33.7
2016-11-22T02:44:45.485Z,33.7
2016-11-22T02:45:45.823Z,34.38
2016-11-22T02:46:45.845Z,34.28
2016-11-22T02:47:45.867Z,33.13
2016-11-22T02:48:45.576Z,32.38
2016-11-22T02:49:45.915Z,32.75
2016-11-22T02:50:45.623Z,33.44
2016-11-22T02:51:45.965Z,33.05
2016-11-22T02:52:45.682Z,34.59
2016-11-22T02:53:45.693Z,34.59
2016-11-22T02:54:46.031Z,32.95
2016-11-22T02:55:45.745Z,33.05
2016-11-22T02:56:45.770Z,32.86
2016-11-22T02:57:46.102Z,32.47
2016-11-22T02:58:46.130Z,32.18
2016-11-22T02:59:46.150Z,35.26
2016-11-22T03:00:46.175Z,36.13
2016-11-22T03:01:45.881Z,36.7
2016-11-22T03:02:45.904Z,37.18
2016-11-22T03:03:46.243Z,36.8
2016-11-22T03:04:46.267Z,37.66
2016-11-22T03:05:46.464Z,38.43
2016-11-22T03:06:46.359Z,38.24
2016-11-22T03:07:46.337Z,37.95
2016-11-22T03:08:46.372Z,36.03
2016-11-22T03:09:46.069Z,34.3
2016-11-22T03:10:46.415Z,34.68
2016-11-22T03:11:46.116Z,35.93
2016-11-22T03:12:46.143Z,36.8
2016-11-22T03:13:46.168Z,35.26
2016-11-22T03:14:46.186Z,33.99
2016-11-22T03:15:46.549Z,32.75
2016-11-22T03:16:46.231Z,32.26
2016-11-22T03:17:46.259Z,33.32
2016-11-22T03:18:46.277Z,33.9
2016-11-22T03:19:46.616Z,34.47
2016-11-22T03:20:46.336Z,34.28
2016-11-22T03:21:46.346Z,34.09
2016-11-22T03:22:46.370Z,32.93
2016-11-22T03:23:46.401Z,33.23
2016-11-22T03:24:46.734Z,33.32
2016-11-22T03:25:46.440Z,33.51
2016-11-22T03:26:46.780Z,33.23
2016-11-22T03:27:46.806Z,33.13
2016-11-22T03:28:46.511Z,33.51
2016-11-22T03:29:46.533Z,33.32
2016-11-22T03:30:46.871Z,32.84
2016-11-22T03:31:46.582Z,32.55
2016-11-22T03:32:46.624Z,32.86
2016-11-22T03:33:46.943Z,33.51
2016-11-22T03:34:46.651Z,34.19
2016-11-22T03:35:46.989Z,34.57
2016-11-22T03:36:46.697Z,33.44
2016-11-22T03:37:46.718Z,32.95
2016-11-22T03:38:46.745Z,33.13
2016-11-22T03:39:47.085Z,33.44
2016-11-22T03:40:46.840Z,33.82
2016-11-22T03:41:46.813Z,35.43
2016-11-22T03:42:46.839Z,36.4
2016-11-22T03:43:46.862Z,35.91
2016-11-22T03:44:46.887Z,35.05
2016-11-22T03:45:46.906Z,34.57
2016-11-22T03:46:47.250Z,34.38
2016-11-22T03:47:47.272Z,33.9
2016-11-22T03:48:47.000Z,33.91
2016-11-22T03:49:47.002Z,34.11
2016-11-22T03:50:47.363Z,34.78
2016-11-22T03:51:47.048Z,36.7
2016-11-22T03:52:47.390Z,36.6
2016-11-22T03:53:47.097Z,36.41
2016-11-22T03:54:47.119Z,36.9
2016-11-22T03:55:47.142Z,38.41
2016-11-22T03:56:47.165Z,38.14
2016-11-22T03:57:47.191Z,38.22
2016-11-22T03:58:47.210Z,37.26
2016-11-22T03:59:47.235Z,36.58
2016-11-22T04:00:47.260Z,37.93
2016-11-22T04:01:47.598Z,37.64
2016-11-22T04:02:47.309Z,37.07
2016-11-22T04:03:47.340Z,36.88
2016-11-22T04:04:47.672Z,38.22
2016-11-22T04:05:47.376Z,37.74
2016-11-22T04:06:47.715Z,36.78
2016-11-22T04:07:47.422Z,38.22
2016-11-22T04:08:47.448Z,38.51
2016-11-22T04:09:47.466Z,38.51
2016-11-22T04:10:47.805Z,38.79
2016-11-22T04:11:47.512Z,38.7
2016-11-22T04:12:47.535Z,39.37
2016-11-22T04:13:47.561Z,38.99
2016-11-22T04:14:47.897Z,39.64
2016-11-22T04:15:47.610Z,38.99
2016-11-22T04:16:47.947Z,39.37
2016-11-22T04:17:47.969Z,39.28
2016-11-22T04:18:47.674Z,38.78
2016-11-22T04:19:47.715Z,39.06
2016-11-22T04:20:47.719Z,39.73
2016-11-22T04:21:48.080Z,39.26
2016-11-22T04:22:48.082Z,38.96
2016-11-22T04:23:47.791Z,39.35
2016-11-22T04:24:47.816Z,39.73
2016-11-22T04:25:47.837Z,39.26
2016-11-22T04:26:47.860Z,39.64
2016-11-22T04:27:47.879Z,38.39
2016-11-22T04:28:48.216Z,36.76
2016-11-22T04:29:47.926Z,35.99
2016-11-22T04:30:47.947Z,36.76
2016-11-22T04:31:48.284Z,36.66
2016-11-22T04:32:47.996Z,36.86
2016-11-22T04:33:48.335Z,36.09
2016-11-22T04:34:48.356Z,37.62
2016-11-22T04:35:48.377Z,38.68
2016-11-22T04:36:48.086Z,39.54
2016-11-22T04:37:48.106Z,40.89
2016-11-22T04:38:48.447Z,40.5
2016-11-22T04:39:48.499Z,40.5
2016-11-22T04:40:48.494Z,41.37
2016-11-22T04:41:48.203Z,40.22
2016-11-22T04:42:48.536Z,40.41
2016-11-22T04:43:48.563Z,41.56
2016-11-22T04:44:48.277Z,41.08
2016-11-22T04:45:48.291Z,41.35
2016-11-22T04:46:48.313Z,40.48
2016-11-22T04:47:48.655Z,40.1
2016-11-22T04:48:48.675Z,40.58
2016-11-22T04:49:48.700Z,39.91
2016-11-22T04:50:48.404Z,39.04
2016-11-22T04:51:48.430Z,41.06
2016-11-22T04:52:48.449Z,41.35
2016-11-22T04:53:48.786Z,41.63
2016-11-22T04:54:48.494Z,41.83
2016-11-22T04:55:48.832Z,42.4
2016-11-22T04:56:48.554Z,42.98
2016-11-22T04:57:48.562Z,41.83
2016-11-22T04:58:48.900Z,41.06
2016-11-22T04:59:48.608Z,41.73
2016-11-22T05:00:48.627Z,41.35
2016-11-22T05:01:48.968Z,41.9
2016-11-22T05:02:48.673Z,43.94
2016-11-22T05:03:48.699Z,42.96
2016-11-22T05:04:48.718Z,42.67
2016-11-22T05:05:48.739Z,42.47
2016-11-22T05:06:49.081Z,42.47
2016-11-22T05:07:49.104Z,42.29
2016-11-22T05:08:48.811Z,41.8
2016-11-22T05:09:48.832Z,41.52
2016-11-22T05:10:48.853Z,40.66
2016-11-22T05:11:48.875Z,40.75
2016-11-22T05:12:48.900Z,40.94
2016-11-22T05:13:49.234Z,41.61
2016-11-22T05:14:48.941Z,41.52
2016-11-22T05:15:49.302Z,40.84
2016-11-22T05:16:48.989Z,41.23
2016-11-22T05:17:49.007Z,41.61
2016-11-22T05:18:49.034Z,42
2016-11-22T05:19:49.062Z,41.52
2016-11-22T05:20:49.392Z,41.61
2016-11-22T05:21:49.103Z,42
2016-11-22T05:22:49.433Z,42
2016-11-22T05:23:49.144Z,42.86
2016-11-22T05:24:49.167Z,43.34
2016-11-22T05:25:49.190Z,42.65
2016-11-22T05:26:49.528Z,42.86
2016-11-22T05:27:49.233Z,43.51
2016-11-22T05:28:49.276Z,43.24
2016-11-22T05:29:49.287Z,43.44
2016-11-22T05:30:49.615Z,43.32
2016-11-22T05:31:49.640Z,43.63
2016-11-22T05:32:49.660Z,43.73
2016-11-22T05:33:49.684Z,44.09
2016-11-22T05:34:49.702Z,43.7
2016-11-22T05:35:49.741Z,42.77
2016-11-22T05:36:49.449Z,43.63
2016-11-22T05:37:49.456Z,44.09
2016-11-22T05:38:49.801Z,43.7
2016-11-22T05:39:49.500Z,43.99
2016-11-22T05:40:49.523Z,43.8
2016-11-22T05:41:49.546Z,43.8
2016-11-22T05:42:49.884Z,44.56
2016-11-22T05:43:49.901Z,43.8
2016-11-22T05:44:49.926Z,43.32
2016-11-22T05:45:49.636Z,43.9
2016-11-22T05:46:49.655Z,43.99
2016-11-22T05:47:49.993Z,44.27
2016-11-22T05:48:50.013Z,43.99
2016-11-22T05:49:49.721Z,43.7
2016-11-22T05:50:49.743Z,43.7
2016-11-22T05:51:49.777Z,45.33
2016-11-22T05:52:50.100Z,46
2016-11-22T05:53:49.819Z,46.29
2016-11-22T05:54:50.143Z,46.19
2016-11-22T05:55:50.168Z,46.19
2016-11-22T05:56:50.186Z,45.59
2016-11-22T05:57:50.213Z,45.69
2016-11-22T05:58:49.925Z,45.5
2016-11-22T05:59:50.260Z,44.93
2016-11-22T06:00:49.957Z,45.12
2016-11-22T06:01:49.984Z,44.64
2016-11-22T06:02:50.314Z,44.73
2016-11-22T06:03:50.338Z,44.26
2016-11-22T06:04:50.048Z,44.54
2016-11-22T06:05:50.069Z,44.93
2016-11-22T06:06:50.404Z,44.35
2016-11-22T06:07:50.112Z,44.06
2016-11-22T06:08:50.446Z,45.02
2016-11-22T06:09:50.154Z,45.5
2016-11-22T06:10:50.174Z,45.98
2016-11-22T06:11:50.512Z,45.89
2016-11-22T06:12:50.539Z,45.79
2016-11-22T06:13:50.240Z,45.69
2016-11-22T06:14:50.279Z,45.21
2016-11-22T06:15:50.286Z,45.59
2016-11-22T06:16:50.636Z,45.98
2016-11-22T06:17:50.649Z,46.08
2016-11-22T06:18:50.665Z,45.59
2016-11-22T06:19:50.367Z,45.89
2016-11-22T06:20:50.391Z,45.12
2016-11-22T06:21:50.741Z,45.31
2016-11-22T06:22:50.435Z,44.93
2016-11-22T06:23:50.454Z,44.83
2016-11-22T06:24:50.800Z,45.12
2016-11-22T06:25:50.500Z,44.64
2016-11-22T06:26:50.522Z,44.64
2016-11-22T06:27:50.545Z,44.64
2016-11-22T06:28:50.876Z,44.16
2016-11-22T06:29:50.585Z,44.26
2016-11-22T06:30:50.606Z,43.59
2016-11-22T06:31:50.943Z,42.24
2016-11-22T06:32:50.971Z,42.44
2016-11-22T06:33:50.670Z,42.24
2016-11-22T06:34:51.006Z,42.44
2016-11-22T06:35:50.714Z,42.24
2016-11-22T06:36:51.048Z,40.92
2016-11-22T06:37:51.071Z,42.46
2016-11-22T06:38:50.777Z,43.59
2016-11-22T06:39:50.804Z,43.8
2016-11-22T06:40:51.137Z,43.9
2016-11-22T06:41:50.844Z,43.9
2016-11-22T06:42:50.866Z,43.6
2016-11-22T06:43:50.887Z,44.45
2016-11-22T06:44:50.923Z,44.45
2016-11-22T06:45:51.243Z,44.35
2016-11-22T06:46:50.957Z,45.21
2016-11-22T06:47:50.976Z,45.12
2016-11-22T06:48:50.998Z,44.93
2016-11-22T06:49:51.058Z,45.12
2016-11-22T06:50:51.039Z,45.21
2016-11-22T06:51:51.064Z,45.21
2016-11-22T06:52:51.084Z,45.12
2016-11-22T06:53:51.103Z,45.4
2016-11-22T06:54:51.130Z,45.4
2016-11-22T06:55:51.473Z,46.17
2016-11-22T06:56:51.489Z,46.46
2016-11-22T06:57:51.507Z,46.36
2016-11-22T06:58:51.211Z,46.26
2016-11-22T06:59:51.549Z,46.36
2016-11-22T07:00:51.276Z,46.55
2016-11-22T07:01:51.591Z,46.84
2016-11-22T07:02:51.297Z,47.39
2016-11-22T07:03:51.636Z,47.49
2016-11-22T07:04:51.656Z,47.78
2016-11-22T07:05:51.686Z,48.07
2016-11-22T07:06:51.384Z,48.54
2016-11-22T07:07:51.422Z,47.97
2016-11-22T07:08:51.742Z,48.35
2016-11-22T07:09:51.448Z,48.07
2016-11-22T07:10:51.797Z,47.97
2016-11-22T07:11:51.807Z,48.64
2016-11-22T07:12:51.560Z,49.02
2016-11-22T07:13:51.845Z,48.83
2016-11-22T07:14:51.552Z,48.71
2016-11-22T07:15:51.576Z,48.61
2016-11-22T07:16:51.909Z,48.52
2016-11-22T07:17:51.934Z,48.13
2016-11-22T07:18:51.959Z,47.47
2016-11-22T07:19:51.663Z,47.3
2016-11-22T07:20:51.997Z,46.91
2016-11-22T07:21:51.700Z,47.01
2016-11-22T07:22:52.040Z,46.72
2016-11-22T07:23:52.058Z,47.01
2016-11-22T07:24:52.079Z,47.11
2016-11-22T07:25:52.101Z,46.82
2016-11-22T07:26:52.122Z,46.44
2016-11-22T07:27:51.827Z,47.11
2016-11-22T07:28:51.847Z,47.2
2016-11-22T07:29:51.873Z,47.49
2016-11-22T07:30:51.889Z,47.49
2016-11-22T07:31:52.226Z,47.97
2016-11-22T07:32:51.932Z,48.54
2016-11-22T07:33:51.959Z,48.35
2016-11-22T07:34:51.973Z,48.25
2016-11-22T07:35:52.000Z,47.97
2016-11-22T07:36:52.023Z,48.07
2016-11-22T07:37:52.046Z,48.64
2016-11-22T07:38:52.376Z,48.16
2016-11-22T07:39:52.401Z,48.07
2016-11-22T07:40:52.416Z,48.54
2016-11-22T07:41:52.451Z,48.44
2016-11-22T07:42:52.460Z,49.02
2016-11-22T07:43:52.170Z,49.02
2016-11-22T07:44:52.504Z,49.6
2016-11-22T07:45:52.528Z,49.4
2016-11-22T07:46:52.230Z,50.36
2016-11-22T07:47:52.253Z,49.02
2016-11-22T07:48:52.278Z,49.21
2016-11-22T07:49:52.296Z,49.31
2016-11-22T07:50:52.318Z,49.4
2016-11-22T07:51:52.341Z,49.5
2016-11-22T07:52:52.677Z,48.35
2016-11-22T07:53:52.379Z,48.73
2016-11-22T07:54:52.401Z,48.83
2016-11-22T07:55:52.737Z,48.16
2016-11-22T07:56:52.444Z,47.71
2016-11-22T07:57:52.778Z,47.58
2016-11-22T07:58:52.803Z,47.58
2016-11-22T07:59:52.508Z,48.35
2016-11-22T08:00:52.858Z,48.25
2016-11-22T08:01:52.552Z,48.25
2016-11-22T08:02:52.574Z,48.35
2016-11-22T08:03:52.906Z,47.61
2016-11-22T08:04:52.950Z,48.44
2016-11-22T08:05:52.960Z,48.25
2016-11-22T08:06:52.971Z,48.16
2016-11-22T08:07:52.995Z,47.87
2016-11-22T08:08:53.015Z,48.16
2016-11-22T08:09:53.035Z,48.44
2016-11-22T08:10:53.101Z,48.47
2016-11-22T08:11:53.088Z,48.93
2016-11-22T08:12:53.134Z,48.93
2016-11-22T08:13:52.809Z,48.47
2016-11-22T08:14:52.826Z,47.51
2016-11-22T08:15:52.850Z,47.8
2016-11-22T08:16:53.187Z,47.89
2016-11-22T08:17:53.207Z,48.18
2016-11-22T08:18:52.913Z,47.99
2016-11-22T08:19:53.250Z,48.09
2016-11-22T08:20:53.274Z,47.71
2016-11-22T08:21:52.976Z,47.22
2016-11-22T08:22:53.313Z,47.49
2016-11-22T08:23:53.038Z,48.28
2016-11-22T08:24:53.053Z,48.18
2016-11-22T08:25:53.062Z,48.28
2016-11-22T08:26:53.400Z,48.09
2016-11-22T08:27:53.103Z,48.09
2016-11-22T08:28:53.127Z,48.09
2016-11-22T08:29:53.147Z,48.47
2016-11-22T08:30:53.485Z,48.75
2016-11-22T08:31:53.512Z,48.57
2016-11-22T08:32:53.239Z,47.51
2016-11-22T08:33:53.243Z,47.61
2016-11-22T08:34:53.255Z,47.71
2016-11-22T08:35:53.278Z,47.71
2016-11-22T08:36:53.300Z,47.61
2016-11-22T08:37:53.322Z,48.09
2016-11-22T08:38:53.342Z,47.8
2016-11-22T08:39:53.679Z,48.09
2016-11-22T08:40:53.700Z,48.47
2016-11-22T08:41:53.723Z,47.61
2016-11-22T08:42:53.428Z,47.32
2016-11-22T08:43:53.455Z,47.32
2016-11-22T08:44:53.472Z,47.73
2016-11-22T08:45:53.493Z,47.44
2016-11-22T08:46:53.538Z,48.02
2016-11-22T08:47:53.852Z,47.15
2016-11-22T08:48:53.554Z,47.34
2016-11-22T08:49:53.896Z,46.86
2016-11-22T08:50:53.599Z,47.44
2016-11-22T08:51:53.621Z,47.63
2016-11-22T08:52:53.959Z,46.98
2016-11-22T08:53:53.667Z,45.54
2016-11-22T08:54:53.705Z,45.74
2016-11-22T08:55:53.726Z,46.39
2016-11-22T08:56:53.732Z,45.74
2016-11-22T08:57:54.070Z,46.03
2016-11-22T08:58:53.777Z,45.16
2016-11-22T08:59:54.111Z,44.2
2016-11-22T09:00:53.822Z,44.01
2016-11-22T09:01:53.847Z,44.68
2016-11-22T09:02:53.876Z,44.49
2016-11-22T09:03:53.887Z,44.51
2016-11-22T09:04:53.911Z,44.4
2016-11-22T09:05:53.931Z,45.07
2016-11-22T09:06:54.269Z,45.28
2016-11-22T09:07:53.979Z,44.42
2016-11-22T09:08:54.312Z,45.28
2016-11-22T09:09:54.357Z,44.23
2016-11-22T09:10:54.045Z,44.32
2016-11-22T09:11:54.387Z,44.42
2016-11-22T09:12:54.088Z,44.13
2016-11-22T09:13:54.110Z,45.09
2016-11-22T09:14:54.134Z,44.44
2016-11-22T09:15:54.158Z,44.82
2016-11-22T09:16:54.495Z,44.15
2016-11-22T09:17:54.517Z,43.67
2016-11-22T09:18:54.541Z,43.29
2016-11-22T09:19:54.248Z,43.02
2016-11-22T09:20:54.596Z,42.16
2016-11-22T09:21:54.291Z,41.2
2016-11-22T09:22:54.318Z,42.25
2016-11-22T09:23:54.658Z,41.87
2016-11-22T09:24:54.362Z,42.93
2016-11-22T09:25:54.724Z,42.73
2016-11-22T09:26:54.724Z,43.02
2016-11-22T09:27:54.750Z,42.94
2016-11-22T09:28:54.462Z,41.89
2016-11-22T09:29:54.478Z,40.45
2016-11-22T09:30:54.501Z,40.64
2016-11-22T09:31:54.841Z,39.99
2016-11-22T09:32:54.864Z,38.64
2016-11-22T09:33:54.574Z,39.22
2016-11-22T09:34:54.913Z,39.03
2016-11-22T09:35:54.618Z,38.35
2016-11-22T09:36:54.962Z,38.93
2016-11-22T09:37:54.670Z,39.51
2016-11-22T09:38:55.009Z,40.28
2016-11-22T09:39:54.714Z,39.51
2016-11-22T09:40:55.203Z,39.51
2016-11-22T09:41:54.762Z,39.62
2016-11-22T09:42:55.101Z,39.31
2016-11-22T09:43:54.811Z,39.7
2016-11-22T09:44:55.159Z,39.62
2016-11-22T09:45:54.854Z,39.03
2016-11-22T09:46:54.881Z,39.51
2016-11-22T09:47:54.909Z,39.7
2016-11-22T09:48:55.248Z,39.7
2016-11-22T09:49:54.952Z,39.79
2016-11-22T09:50:55.294Z,39.41
2016-11-22T09:51:55.003Z,38.35
2016-11-22T09:52:55.026Z,38.54
2016-11-22T09:53:55.367Z,38.54
2016-11-22T09:54:55.074Z,39.12
2016-11-22T09:55:55.096Z,39.22
2016-11-22T09:56:55.127Z,39.12
2016-11-22T09:57:55.462Z,40.45
2016-11-22T09:58:55.170Z,40.45
2016-11-22T09:59:55.196Z,40.95
2016-11-22T10:00:55.532Z,40.47
2016-11-22T10:01:55.557Z,40.37
2016-11-22T10:02:55.582Z,40.56
2016-11-22T10:03:55.605Z,40.08
2016-11-22T10:04:55.313Z,39.99
2016-11-22T10:05:55.653Z,39.81
2016-11-22T10:06:55.686Z,39.41
2016-11-22T10:07:55.400Z,40.18
2016-11-22T10:08:55.407Z,39.72
2016-11-22T10:09:55.752Z,40.18
2016-11-22T10:10:55.457Z,39.99
2016-11-22T10:11:55.801Z,39.72
2016-11-22T10:12:55.508Z,38.54
2016-11-22T10:13:55.845Z,40.18
2016-11-22T10:14:55.553Z,39.89
2016-11-22T10:15:55.894Z,40.18
2016-11-22T10:16:55.914Z,39.7
2016-11-22T10:17:55.939Z,39.79
2016-11-22T10:18:55.645Z,39.79
2016-11-22T10:19:55.683Z,40.83
2016-11-22T10:20:55.697Z,41.7
2016-11-22T10:21:55.751Z,41.6
2016-11-22T10:22:56.057Z,40.93
2016-11-22T10:23:56.092Z,41.12
2016-11-22T10:24:56.104Z,41.12
2016-11-22T10:25:55.812Z,41.12
2016-11-22T10:26:55.835Z,41.41
2016-11-22T10:27:56.176Z,41.7
2016-11-22T10:28:55.880Z,41.7
2016-11-22T10:29:55.907Z,41.89
2016-11-22T10:30:55.933Z,42.08
2016-11-22T10:31:55.958Z,41.12
2016-11-22T10:32:55.974Z,41.41
2016-11-22T10:33:56.313Z,41.79
2016-11-22T10:34:56.022Z,41.6
2016-11-22T10:35:56.373Z,41.22
2016-11-22T10:36:56.069Z,41.7
2016-11-22T10:37:56.092Z,41.6
2016-11-22T10:38:56.434Z,42.47
2016-11-22T10:39:56.140Z,41.99
2016-11-22T10:40:56.478Z,41.02
2016-11-22T10:41:56.502Z,41.96
2016-11-22T10:42:56.211Z,42.06
2016-11-22T10:43:56.235Z,41.87
2016-11-22T10:44:56.575Z,41.39
2016-11-22T10:45:56.596Z,41.77
2016-11-22T10:46:56.304Z,41.87
2016-11-22T10:47:56.328Z,40.91
2016-11-22T10:48:56.351Z,41.29
2016-11-22T10:49:56.376Z,42.25
2016-11-22T10:50:56.725Z,41.58
2016-11-22T10:51:56.417Z,42.35
2016-11-22T10:52:56.451Z,42.83
2016-11-22T10:53:56.464Z,42.73
2016-11-22T10:54:56.808Z,43.02
2016-11-22T10:55:56.511Z,43.31
2016-11-22T10:56:56.537Z,43.98
2016-11-22T10:57:56.560Z,42.94
2016-11-22T10:58:56.581Z,42.56
2016-11-22T10:59:56.628Z,42.54
2016-11-22T11:00:56.945Z,42.94
2016-11-22T11:01:56.969Z,43.14
2016-11-22T11:02:56.992Z,42.85
2016-11-22T11:03:57.014Z,42.56
2016-11-22T11:04:56.725Z,42.85
2016-11-22T11:05:57.060Z,43.14
2016-11-22T11:06:56.773Z,42.47
2016-11-22T11:07:56.797Z,43.14
2016-11-22T11:08:56.819Z,42.73
2016-11-22T11:09:56.838Z,43.02
2016-11-22T11:10:56.863Z,42.64
2016-11-22T11:11:56.887Z,43.02
2016-11-22T11:12:56.910Z,43.21
2016-11-22T11:13:56.931Z,43.12
2016-11-22T11:14:56.955Z,42.93
2016-11-22T11:15:56.980Z,43.21
2016-11-22T11:16:57.002Z,43.21
2016-11-22T11:17:57.337Z,43.5
2016-11-22T11:18:57.363Z,43.98
2016-11-22T11:19:57.390Z,43.4
2016-11-22T11:20:57.411Z,43.02
2016-11-22T11:21:57.116Z,43.02
2016-11-22T11:22:57.138Z,43.7
2016-11-22T11:23:57.165Z,44.17
2016-11-22T11:24:57.502Z,43.6
2016-11-22T11:25:57.211Z,43.6
2016-11-22T11:26:57.238Z,43.98
2016-11-22T11:27:57.256Z,45.23
2016-11-22T11:28:57.277Z,45.11
2016-11-22T11:29:57.302Z,44.63
2016-11-22T11:30:57.642Z,43.6
2016-11-22T11:31:57.346Z,43.6
2016-11-22T11:32:57.685Z,43.88
2016-11-22T11:33:57.395Z,43.98
2016-11-22T11:34:57.417Z,43.98
2016-11-22T11:35:57.755Z,44.37
2016-11-22T11:36:57.779Z,44.08
2016-11-22T11:37:57.492Z,42.73
2016-11-22T11:38:57.508Z,42.9
2016-11-22T11:39:57.846Z,42.9
2016-11-22T11:40:57.871Z,42.61
2016-11-22T11:41:57.577Z,43.1
2016-11-22T11:42:57.912Z,43.87
2016-11-22T11:43:57.623Z,43
2016-11-22T11:44:57.675Z,43.19
2016-11-22T11:45:57.986Z,43.88
2016-11-22T11:46:58.007Z,43.77
2016-11-22T11:47:57.714Z,43.57
2016-11-22T11:48:57.739Z,43.57
2016-11-22T11:49:57.762Z,42.73
2016-11-22T11:50:57.780Z,43.79
2016-11-22T11:51:57.809Z,44.24
2016-11-22T11:52:58.149Z,44.34
2016-11-22T11:53:57.894Z,44.44
2016-11-22T11:54:57.875Z,44.92
2016-11-22T11:55:58.214Z,45.11
2016-11-22T11:56:57.922Z,45.11
2016-11-22T11:57:58.265Z,45.4
2016-11-22T11:58:57.965Z,45.32
2016-11-22T11:59:58.305Z,44.06
2016-11-22T12:00:58.331Z,43.77
2016-11-22T12:01:58.032Z,43.6
2016-11-22T12:02:58.053Z,43.77
2016-11-22T12:03:58.397Z,43.38
2016-11-22T12:04:58.100Z,43.77
2016-11-22T12:05:58.121Z,43.98
2016-11-22T12:06:58.148Z,43.21
2016-11-22T12:07:58.171Z,43.12
2016-11-22T12:08:58.523Z,42.9
2016-11-22T12:09:58.532Z,43.77
2016-11-22T12:10:58.553Z,43.67
2016-11-22T12:11:58.261Z,42.93
2016-11-22T12:12:58.596Z,43.19
2016-11-22T12:13:58.307Z,43.19
2016-11-22T12:14:58.369Z,43.96
2016-11-22T12:15:58.362Z,43.57
2016-11-22T12:16:58.406Z,43.48
2016-11-22T12:17:58.718Z,43.29
2016-11-22T12:18:58.735Z,43.29
2016-11-22T12:19:58.442Z,44.06
2016-11-22T12:20:58.465Z,43.31
2016-11-22T12:21:58.491Z,42.81
2016-11-22T12:22:58.834Z,43.77
2016-11-22T12:23:58.550Z,43.77
2016-11-22T12:24:58.877Z,43.67
2016-11-22T12:25:58.583Z,43.31
2016-11-22T12:26:58.605Z,43.7
2016-11-22T12:27:58.960Z,43.79
2016-11-22T12:28:58.965Z,43.88
2016-11-22T12:29:58.989Z,43.88
2016-11-22T12:30:58.695Z,44.46
2016-11-22T12:31:58.999Z,43.4
2016-11-22T12:32:58.855Z,43.57
2016-11-22T12:33:59.079Z,43.79
2016-11-22T12:34:58.786Z,44.08
2016-11-22T12:35:59.126Z,44.17
2016-11-22T12:36:59.152Z,44.27
2016-11-22T12:37:58.855Z,44.08
2016-11-22T12:38:58.878Z,43.7
2016-11-22T12:39:58.922Z,43.98
2016-11-22T12:40:58.931Z,44.46
2016-11-22T12:41:58.952Z,44.46
2016-11-22T12:42:59.296Z,44.08
2016-11-22T12:43:59.309Z,44.56
2016-11-22T12:44:59.014Z,44.37
2016-11-22T12:45:59.036Z,43.21
2016-11-22T12:46:59.064Z,43.5
2016-11-22T12:47:59.397Z,43.31
2016-11-22T12:48:59.420Z,43.12
2016-11-22T12:49:59.132Z,42.25
2016-11-22T12:50:59.151Z,42.44
2016-11-22T12:51:59.173Z,43.12
2016-11-22T12:52:59.511Z,43.4
2016-11-22T12:53:59.218Z,44.56
2016-11-22T12:54:59.258Z,44.65
2016-11-22T12:55:59.581Z,43.98